sensor_id;sensor_type;location;lat;lon;timestamp;pressure;altitude;pressure_sealevel;temperature;humidity
1926;BME280;964;42.606;23.588;2023-03-13T00:02:18;94749.13;;;20.85;20.76
1926;BME280;964;42.606;23.588;2023-03-13T00:04:46;94747.09;;;20.43;21.43
1926;BME280;964;42.606;23.588;2023-03-13T00:07:13;94758.59;;;20.47;21.26
1926;BME280;964;42.606;23.588;2023-03-13T00:09:40;94755.78;;;20.24;20.96
1926;BME280;964;42.606;23.588;2023-03-13T00:12:07;94750.00;;;20.29;21.43
1926;BME280;964;42.606;23.588;2023-03-13T00:14:34;94761.09;;;20.31;21.35
1926;BME280;964;42.606;23.588;2023-03-13T00:17:00;94760.00;;;20.25;21.67
1926;BME280;964;42.606;23.588;2023-03-13T00:19:27;94751.22;;;20.74;21.73
1926;BME280;964;42.606;23.588;2023-03-13T00:21:55;94755.94;;;20.93;21.07
1926;BME280;964;42.606;23.588;2023-03-13T00:24:22;94750.28;;;20.84;21.06
1926;BME280;964;42.606;23.588;2023-03-13T00:26:49;94752.16;;;20.64;21.54
1926;BME280;964;42.606;23.588;2023-03-13T00:29:15;94766.06;;;20.02;21.41
1926;BME280;964;42.606;23.588;2023-03-13T00:31:42;94758.53;;;19.90;21.99
1926;BME280;964;42.606;23.588;2023-03-13T00:34:09;94774.16;;;19.68;22.01
1926;BME280;964;42.606;23.588;2023-03-13T00:36:36;94769.69;;;19.88;22.07
1926;BME280;964;42.606;23.588;2023-03-13T00:39:05;94774.31;;;19.54;22.45
1926;BME280;964;42.606;23.588;2023-03-13T00:41:32;94770.66;;;19.34;22.24
1926;BME280;964;42.606;23.588;2023-03-13T00:43:59;94767.78;;;19.89;22.04
1926;BME280;964;42.606;23.588;2023-03-13T00:46:27;94778.50;;;19.92;21.82
1926;BME280;964;42.606;23.588;2023-03-13T00:48:54;94781.63;;;19.50;22.28
1926;BME280;964;42.606;23.588;2023-03-13T00:51:24;94776.97;;;19.13;23.26
1926;BME280;964;42.606;23.588;2023-03-13T00:53:51;94773.03;;;19.25;23.16
1926;BME280;964;42.606;23.588;2023-03-13T00:56:20;94777.63;;;19.24;22.96
1926;BME280;964;42.606;23.588;2023-03-13T00:58:48;94780.94;;;19.01;23.03
1926;BME280;964;42.606;23.588;2023-03-13T01:01:17;94776.78;;;19.31;23.27
1926;BME280;964;42.606;23.588;2023-03-13T01:03:46;94772.41;;;19.10;23.28
1926;BME280;964;42.606;23.588;2023-03-13T01:06:14;94783.28;;;18.92;23.50
1926;BME280;964;42.606;23.588;2023-03-13T01:08:41;94774.03;;;19.00;23.57
1926;BME280;964;42.606;23.588;2023-03-13T01:11:11;94779.69;;;18.65;24.17
1926;BME280;964;42.606;23.588;2023-03-13T01:13:40;94784.06;;;18.93;23.82
1926;BME280;964;42.606;23.588;2023-03-13T01:16:09;94780.47;;;18.58;24.51
1926;BME280;964;42.606;23.588;2023-03-13T01:18:37;94786.19;;;18.64;23.69
1926;BME280;964;42.606;23.588;2023-03-13T01:21:04;94785.03;;;18.65;24.23
1926;BME280;964;42.606;23.588;2023-03-13T01:23:32;94788.94;;;18.57;24.13
1926;BME280;964;42.606;23.588;2023-03-13T01:25:58;94791.06;;;18.76;23.91
1926;BME280;964;42.606;23.588;2023-03-13T01:28:26;94789.75;;;18.40;23.95
1926;BME280;964;42.606;23.588;2023-03-13T01:30:54;94786.88;;;18.09;24.00
1926;BME280;964;42.606;23.588;2023-03-13T01:33:21;94786.53;;;18.66;23.71
1926;BME280;964;42.606;23.588;2023-03-13T01:35:48;94788.19;;;18.49;23.76
1926;BME280;964;42.606;23.588;2023-03-13T01:38:14;94782.09;;;18.42;24.82
1926;BME280;964;42.606;23.588;2023-03-13T01:40:43;94784.31;;;18.61;24.63
1926;BME280;964;42.606;23.588;2023-03-13T01:43:19;94793.78;;;17.96;24.26
1926;BME280;964;42.606;23.588;2023-03-13T01:45:57;94784.09;;;18.24;24.63
1926;BME280;964;42.606;23.588;2023-03-13T01:48:30;94790.06;;;18.56;24.11
1926;BME280;964;42.606;23.588;2023-03-13T01:51:00;94796.22;;;18.53;24.69
1926;BME280;964;42.606;23.588;2023-03-13T01:53:30;94799.94;;;18.70;23.98
1926;BME280;964;42.606;23.588;2023-03-13T01:55:58;94797.56;;;18.17;24.50
1926;BME280;964;42.606;23.588;2023-03-13T01:58:27;94809.94;;;17.86;25.52
1926;BME280;964;42.606;23.588;2023-03-13T02:00:57;94808.41;;;17.85;25.02
1926;BME280;964;42.606;23.588;2023-03-13T02:03:25;94806.81;;;18.01;24.04
1926;BME280;964;42.606;23.588;2023-03-13T02:05:54;94802.09;;;18.27;24.78
1926;BME280;964;42.606;23.588;2023-03-13T02:08:24;94809.91;;;18.69;23.36
1926;BME280;964;42.606;23.588;2023-03-13T02:11:01;94816.56;;;18.40;23.56
1926;BME280;964;42.606;23.588;2023-03-13T02:13:29;94808.25;;;18.24;23.68
1926;BME280;964;42.606;23.588;2023-03-13T02:15:58;94819.16;;;17.67;24.74
1926;BME280;964;42.606;23.588;2023-03-13T02:18:25;94813.50;;;17.30;25.37
1926;BME280;964;42.606;23.588;2023-03-13T02:20:57;94819.19;;;17.39;25.48
1926;BME280;964;42.606;23.588;2023-03-13T02:23:31;94822.28;;;17.20;25.53
1926;BME280;964;42.606;23.588;2023-03-13T02:26:02;94816.91;;;17.41;24.84
1926;BME280;964;42.606;23.588;2023-03-13T02:28:31;94810.41;;;17.59;25.11
1926;BME280;964;42.606;23.588;2023-03-13T02:30:59;94824.00;;;18.07;24.21
1926;BME280;964;42.606;23.588;2023-03-13T02:33:29;94817.63;;;17.73;24.58
1926;BME280;964;42.606;23.588;2023-03-13T02:35:57;94815.25;;;17.96;25.19
1926;BME280;964;42.606;23.588;2023-03-13T02:38:28;94811.81;;;17.92;24.65
1926;BME280;964;42.606;23.588;2023-03-13T02:40:57;94818.81;;;17.54;24.74
1926;BME280;964;42.606;23.588;2023-03-13T02:43:28;94827.59;;;17.69;24.61
1926;BME280;964;42.606;23.588;2023-03-13T02:46:07;94827.59;;;17.73;24.57
1926;BME280;964;42.606;23.588;2023-03-13T02:48:37;94832.56;;;17.53;24.35
1926;BME280;964;42.606;23.588;2023-03-13T02:51:07;94831.44;;;17.64;25.18
1926;BME280;964;42.606;23.588;2023-03-13T02:53:36;94836.00;;;17.75;24.46
1926;BME280;964;42.606;23.588;2023-03-13T02:56:03;94832.75;;;18.26;24.11
1926;BME280;964;42.606;23.588;2023-03-13T02:58:39;94838.94;;;18.16;24.36
1926;BME280;964;42.606;23.588;2023-03-13T03:01:07;94856.50;;;18.31;24.13
1926;BME280;964;42.606;23.588;2023-03-13T03:03:34;94863.78;;;18.27;23.53
1926;BME280;964;42.606;23.588;2023-03-13T03:06:03;94853.63;;;18.70;23.57
1926;BME280;964;42.606;23.588;2023-03-13T03:08:30;94858.94;;;18.80;23.65
1926;BME280;964;42.606;23.588;2023-03-13T03:10:57;94859.38;;;18.75;24.09
1926;BME280;964;42.606;23.588;2023-03-13T03:13:23;94859.44;;;18.61;23.60
1926;BME280;964;42.606;23.588;2023-03-13T03:15:51;94866.94;;;18.00;23.84
1926;BME280;964;42.606;23.588;2023-03-13T03:18:18;94861.22;;;17.95;24.55
1926;BME280;964;42.606;23.588;2023-03-13T03:20:45;94863.50;;;18.10;24.07
1926;BME280;964;42.606;23.588;2023-03-13T03:23:12;94861.59;;;18.00;24.55
1926;BME280;964;42.606;23.588;2023-03-13T03:25:39;94871.56;;;17.96;25.12
1926;BME280;964;42.606;23.588;2023-03-13T03:28:05;94875.63;;;18.33;23.53
1926;BME280;964;42.606;23.588;2023-03-13T03:30:32;94871.72;;;18.58;23.61
1926;BME280;964;42.606;23.588;2023-03-13T03:33:01;94874.47;;;18.41;23.56
1926;BME280;964;42.606;23.588;2023-03-13T03:35:28;94878.63;;;18.49;23.98
1926;BME280;964;42.606;23.588;2023-03-13T03:37:54;94882.53;;;18.37;23.27
1926;BME280;964;42.606;23.588;2023-03-13T03:40:21;94892.34;;;18.76;23.04
1926;BME280;964;42.606;23.588;2023-03-13T03:42:48;94902.28;;;18.79;23.94
1926;BME280;964;42.606;23.588;2023-03-13T03:45:15;94906.25;;;18.53;23.69
1926;BME280;964;42.606;23.588;2023-03-13T03:47:41;94907.78;;;18.57;23.72
1926;BME280;964;42.606;23.588;2023-03-13T03:50:10;94911.97;;;18.58;23.47
1926;BME280;964;42.606;23.588;2023-03-13T03:52:37;94921.69;;;18.21;23.39
1926;BME280;964;42.606;23.588;2023-03-13T03:55:04;94914.72;;;18.37;23.70
1926;BME280;964;42.606;23.588;2023-03-13T03:57:31;94918.66;;;17.97;23.86
1926;BME280;964;42.606;23.588;2023-03-13T03:59:58;94925.56;;;18.05;24.67
1926;BME280;964;42.606;23.588;2023-03-13T04:02:24;94929.03;;;17.95;24.04
1926;BME280;964;42.606;23.588;2023-03-13T04:04:51;94934.63;;;18.47;24.04
1926;BME280;964;42.606;23.588;2023-03-13T04:07:19;94941.91;;;18.50;24.04
1926;BME280;964;42.606;23.588;2023-03-13T04:09:46;94944.97;;;18.52;23.08
1926;BME280;964;42.606;23.588;2023-03-13T04:12:12;94946.16;;;18.37;23.39
1926;BME280;964;42.606;23.588;2023-03-13T04:14:39;94947.75;;;18.13;23.89
1926;BME280;964;42.606;23.588;2023-03-13T04:17:05;94944.59;;;18.46;23.74
1926;BME280;964;42.606;23.588;2023-03-13T04:19:32;94956.22;;;17.80;24.31
1926;BME280;964;42.606;23.588;2023-03-13T04:21:59;94965.44;;;17.61;23.83
1926;BME280;964;42.606;23.588;2023-03-13T04:24:27;94966.16;;;18.00;24.02
1926;BME280;964;42.606;23.588;2023-03-13T04:26:53;94959.25;;;17.92;23.84
1926;BME280;964;42.606;23.588;2023-03-13T04:29:20;94968.06;;;17.19;25.04
1926;BME280;964;42.606;23.588;2023-03-13T04:31:47;94968.28;;;16.64;25.18
1926;BME280;964;42.606;23.588;2023-03-13T04:34:13;94978.00;;;17.22;24.99
1926;BME280;964;42.606;23.588;2023-03-13T04:36:40;94966.19;;;17.72;24.84
1926;BME280;964;42.606;23.588;2023-03-13T04:39:07;94970.78;;;17.82;23.98
1926;BME280;964;42.606;23.588;2023-03-13T04:41:35;94985.34;;;17.81;24.30
1926;BME280;964;42.606;23.588;2023-03-13T04:44:02;94976.91;;;17.61;25.09
1926;BME280;964;42.606;23.588;2023-03-13T04:46:28;94988.78;;;17.71;24.60
1926;BME280;964;42.606;23.588;2023-03-13T04:48:55;94996.81;;;17.78;24.35
1926;BME280;964;42.606;23.588;2023-03-13T04:51:21;95001.41;;;17.67;23.90
1926;BME280;964;42.606;23.588;2023-03-13T04:53:48;95009.84;;;17.62;23.57
1926;BME280;964;42.606;23.588;2023-03-13T04:56:20;95015.94;;;17.52;24.66
1926;BME280;964;42.606;23.588;2023-03-13T04:58:48;95018.25;;;17.57;24.50
1926;BME280;964;42.606;23.588;2023-03-13T05:01:15;95022.44;;;17.51;23.99
1926;BME280;964;42.606;23.588;2023-03-13T05:03:42;95024.38;;;17.61;23.69
1926;BME280;964;42.606;23.588;2023-03-13T05:06:08;95020.56;;;17.76;24.54
1926;BME280;964;42.606;23.588;2023-03-13T05:08:35;95010.59;;;17.87;25.24
1926;BME280;964;42.606;23.588;2023-03-13T05:11:02;95014.44;;;17.93;24.60
1926;BME280;964;42.606;23.588;2023-03-13T05:13:29;95023.63;;;17.85;24.42
1926;BME280;964;42.606;23.588;2023-03-13T05:15:57;95022.84;;;18.20;24.88
1926;BME280;964;42.606;23.588;2023-03-13T05:18:24;95012.88;;;18.24;24.26
1926;BME280;964;42.606;23.588;2023-03-13T05:20:51;95020.56;;;17.94;24.29
1926;BME280;964;42.606;23.588;2023-03-13T05:26:46;95020.38;;;18.93;24.31
1926;BME280;964;42.606;23.588;2023-03-13T05:29:15;95028.50;;;19.55;23.33
1926;BME280;964;42.606;23.588;2023-03-13T05:31:43;95014.09;;;19.83;23.25
1926;BME280;964;42.606;23.588;2023-03-13T05:34:10;95018.03;;;20.16;22.79
1926;BME280;964;42.606;23.588;2023-03-13T05:36:37;95014.81;;;20.35;22.90
1926;BME280;964;42.606;23.588;2023-03-13T05:39:03;95014.44;;;20.70;22.35
1926;BME280;964;42.606;23.588;2023-03-13T05:41:30;95021.97;;;20.86;22.24
1926;BME280;964;42.606;23.588;2023-03-13T05:43:57;95029.13;;;21.30;21.95
1926;BME280;964;42.606;23.588;2023-03-13T05:46:23;95029.75;;;21.68;21.28
1926;BME280;964;42.606;23.588;2023-03-13T05:48:51;95027.13;;;21.87;21.20
1926;BME280;964;42.606;23.588;2023-03-13T05:51:18;95040.91;;;22.20;20.53
1926;BME280;964;42.606;23.588;2023-03-13T05:53:45;95039.44;;;22.38;20.93
1926;BME280;964;42.606;23.588;2023-03-13T05:56:11;95032.69;;;22.50;20.66
1926;BME280;964;42.606;23.588;2023-03-13T05:58:38;95032.53;;;22.80;21.26
1926;BME280;964;42.606;23.588;2023-03-13T06:01:06;95025.91;;;23.21;20.65
1926;BME280;964;42.606;23.588;2023-03-13T06:03:33;95033.25;;;23.40;21.01
1926;BME280;964;42.606;23.588;2023-03-13T06:06:01;95030.34;;;23.31;20.78
1926;BME280;964;42.606;23.588;2023-03-13T06:08:28;95023.72;;;23.16;20.85
1926;BME280;964;42.606;23.588;2023-03-13T06:10:58;95037.50;;;22.82;20.51
1926;BME280;964;42.606;23.588;2023-03-13T06:13:25;95041.59;;;23.10;21.21
1926;BME280;964;42.606;23.588;2023-03-13T06:15:52;95048.59;;;23.27;21.31
1926;BME280;964;42.606;23.588;2023-03-13T06:18:18;95048.94;;;23.65;20.46
1926;BME280;964;42.606;23.588;2023-03-13T06:20:45;95051.72;;;24.13;20.11
1926;BME280;964;42.606;23.588;2023-03-13T06:23:13;95043.22;;;24.60;19.88
1926;BME280;964;42.606;23.588;2023-03-13T06:25:40;95046.19;;;24.49;19.74
1926;BME280;964;42.606;23.588;2023-03-13T06:28:06;95032.56;;;24.81;19.68
1926;BME280;964;42.606;23.588;2023-03-13T06:30:33;95041.47;;;25.11;19.30
1926;BME280;964;42.606;23.588;2023-03-13T06:33:00;95043.66;;;25.70;18.67
1926;BME280;964;42.606;23.588;2023-03-13T06:35:26;95039.16;;;25.38;18.83
1926;BME280;964;42.606;23.588;2023-03-13T06:37:53;95050.06;;;25.63;18.70
1926;BME280;964;42.606;23.588;2023-03-13T06:40:21;95042.09;;;26.32;18.01
1926;BME280;964;42.606;23.588;2023-03-13T06:42:48;95046.28;;;26.58;17.79
1926;BME280;964;42.606;23.588;2023-03-13T06:45:14;95039.56;;;26.50;17.92
1926;BME280;964;42.606;23.588;2023-03-13T06:47:41;95046.56;;;26.73;17.91
1926;BME280;964;42.606;23.588;2023-03-13T06:50:09;95033.75;;;26.61;17.46
1926;BME280;964;42.606;23.588;2023-03-13T06:52:35;95027.09;;;27.18;17.28
1926;BME280;964;42.606;23.588;2023-03-13T06:55:03;95024.50;;;27.67;17.20
1926;BME280;964;42.606;23.588;2023-03-13T06:57:31;95019.25;;;27.20;17.34
1926;BME280;964;42.606;23.588;2023-03-13T06:59:58;95015.94;;;26.25;17.91
1926;BME280;964;42.606;23.588;2023-03-13T07:02:24;95026.25;;;25.01;18.20
1926;BME280;964;42.606;23.588;2023-03-13T07:04:51;95012.00;;;24.55;18.99
1926;BME280;964;42.606;23.588;2023-03-13T07:07:18;95007.38;;;25.76;17.60
1926;BME280;964;42.606;23.588;2023-03-13T07:09:44;94998.78;;;27.37;16.91
1926;BME280;964;42.606;23.588;2023-03-13T07:12:11;94996.47;;;28.73;16.13
1926;BME280;964;42.606;23.588;2023-03-13T07:14:39;94998.69;;;28.93;15.79
1926;BME280;964;42.606;23.588;2023-03-13T07:17:06;95004.88;;;29.39;16.14
1926;BME280;964;42.606;23.588;2023-03-13T07:19:32;94990.31;;;30.32;15.19
1926;BME280;964;42.606;23.588;2023-03-13T07:21:59;94992.41;;;30.13;15.32
1926;BME280;964;42.606;23.588;2023-03-13T07:24:26;95000.69;;;30.90;14.67
1926;BME280;964;42.606;23.588;2023-03-13T07:26:52;94986.22;;;31.57;14.32
1926;BME280;964;42.606;23.588;2023-03-13T07:29:19;94987.56;;;32.31;13.86
1926;BME280;964;42.606;23.588;2023-03-13T07:31:48;94992.50;;;32.68;14.01
1926;BME280;964;42.606;23.588;2023-03-13T07:34:14;94989.56;;;32.71;13.85
1926;BME280;964;42.606;23.588;2023-03-13T07:36:41;94986.09;;;32.16;14.17
1926;BME280;964;42.606;23.588;2023-03-13T07:39:08;94996.75;;;32.48;13.92
1926;BME280;964;42.606;23.588;2023-03-13T07:41:35;94998.91;;;32.24;13.92
1926;BME280;964;42.606;23.588;2023-03-13T07:44:01;94991.78;;;32.93;14.03
1926;BME280;964;42.606;23.588;2023-03-13T07:46:28;94994.31;;;33.48;13.29
1926;BME280;964;42.606;23.588;2023-03-13T07:48:56;94986.25;;;34.07;13.00
1926;BME280;964;42.606;23.588;2023-03-13T07:51:24;94988.13;;;34.75;12.65
1926;BME280;964;42.606;23.588;2023-03-13T07:53:52;94983.41;;;34.86;12.48
1926;BME280;964;42.606;23.588;2023-03-13T07:56:20;94989.84;;;33.82;13.17
1926;BME280;964;42.606;23.588;2023-03-13T07:58:47;94998.47;;;32.46;13.59
1926;BME280;964;42.606;23.588;2023-03-13T08:01:16;94993.47;;;32.90;13.53
1926;BME280;964;42.606;23.588;2023-03-13T08:03:43;94987.50;;;34.06;13.46
1926;BME280;964;42.606;23.588;2023-03-13T08:06:16;94990.44;;;34.39;13.08
1926;BME280;964;42.606;23.588;2023-03-13T08:08:43;94981.47;;;35.26;12.21
1926;BME280;964;42.606;23.588;2023-03-13T08:11:12;94972.50;;;35.70;11.98
1926;BME280;964;42.606;23.588;2023-03-13T08:13:39;94975.75;;;35.63;12.54
1926;BME280;964;42.606;23.588;2023-03-13T08:16:08;94972.09;;;32.54;14.19
1926;BME280;964;42.606;23.588;2023-03-13T08:18:36;94969.03;;;32.26;13.94
1926;BME280;964;42.606;23.588;2023-03-13T08:21:05;94953.88;;;34.33;12.95
1926;BME280;964;42.606;23.588;2023-03-13T08:23:34;94939.31;;;36.09;12.62
1926;BME280;964;42.606;23.588;2023-03-13T08:26:02;94945.13;;;35.50;12.99
1926;BME280;964;42.606;23.588;2023-03-13T08:28:30;94937.25;;;36.31;12.36
1926;BME280;964;42.606;23.588;2023-03-13T08:30:56;94932.09;;;37.40;12.48
1926;BME280;964;42.606;23.588;2023-03-13T08:33:23;94932.41;;;37.90;11.72
1926;BME280;964;42.606;23.588;2023-03-13T08:35:50;94938.81;;;36.21;12.13
1926;BME280;964;42.606;23.588;2023-03-13T08:38:16;94948.34;;;34.92;13.11
1926;BME280;964;42.606;23.588;2023-03-13T08:40:44;94942.03;;;36.25;12.58
1926;BME280;964;42.606;23.588;2023-03-13T08:43:11;94940.22;;;36.39;12.57
1926;BME280;964;42.606;23.588;2023-03-13T08:45:38;94950.69;;;36.63;12.83
1926;BME280;964;42.606;23.588;2023-03-13T08:48:05;94944.44;;;36.57;12.13
1926;BME280;964;42.606;23.588;2023-03-13T08:50:31;94949.44;;;36.64;11.83
1926;BME280;964;42.606;23.588;2023-03-13T08:52:58;94949.56;;;36.19;12.40
1926;BME280;964;42.606;23.588;2023-03-13T08:55:25;94948.78;;;37.28;12.58
1926;BME280;964;42.606;23.588;2023-03-13T08:57:53;94951.22;;;36.61;12.36
1926;BME280;964;42.606;23.588;2023-03-13T09:00:20;94961.16;;;35.96;13.34
1926;BME280;964;42.606;23.588;2023-03-13T09:02:47;94955.88;;;35.98;13.44
1926;BME280;964;42.606;23.588;2023-03-13T09:05:14;94949.84;;;36.16;11.87
1926;BME280;964;42.606;23.588;2023-03-13T09:07:41;94944.59;;;36.75;12.18
1926;BME280;964;42.606;23.588;2023-03-13T09:10:08;94933.16;;;37.37;12.05
1926;BME280;964;42.606;23.588;2023-03-13T09:12:35;94937.94;;;37.90;11.86
1926;BME280;964;42.606;23.588;2023-03-13T09:15:04;94943.06;;;36.17;12.03
1926;BME280;964;42.606;23.588;2023-03-13T09:17:31;94936.81;;;36.16;12.36
1926;BME280;964;42.606;23.588;2023-03-13T09:19:58;94932.94;;;36.42;12.15
1926;BME280;964;42.606;23.588;2023-03-13T09:22:25;94929.97;;;37.57;11.04
1926;BME280;964;42.606;23.588;2023-03-13T09:24:51;94936.84;;;37.45;11.99
1926;BME280;964;42.606;23.588;2023-03-13T09:27:18;94919.16;;;38.07;12.11
1926;BME280;964;42.606;23.588;2023-03-13T09:29:44;94926.34;;;37.38;12.34
1926;BME280;964;42.606;23.588;2023-03-13T09:32:12;94922.84;;;37.91;12.06
1926;BME280;964;42.606;23.588;2023-03-13T09:34:39;94932.34;;;37.71;11.76
1926;BME280;964;42.606;23.588;2023-03-13T09:37:06;94923.31;;;38.81;11.29
1926;BME280;964;42.606;23.588;2023-03-13T09:39:33;94934.66;;;37.38;11.96
1926;BME280;964;42.606;23.588;2023-03-13T09:42:04;94922.31;;;37.98;11.84
1926;BME280;964;42.606;23.588;2023-03-13T09:44:39;94927.84;;;37.98;12.13
1926;BME280;964;42.606;23.588;2023-03-13T09:47:14;94928.59;;;37.39;13.03
1926;BME280;964;42.606;23.588;2023-03-13T09:49:44;94937.50;;;37.26;12.40
1926;BME280;964;42.606;23.588;2023-03-13T09:52:17;94936.00;;;37.25;12.20
1926;BME280;964;42.606;23.588;2023-03-13T09:54:48;94927.34;;;36.99;12.58
1926;BME280;964;42.606;23.588;2023-03-13T09:57:22;94934.13;;;36.98;12.28
1926;BME280;964;42.606;23.588;2023-03-13T09:59:54;94932.47;;;37.25;12.41
1926;BME280;964;42.606;23.588;2023-03-13T10:02:28;94923.81;;;37.99;12.07
1926;BME280;964;42.606;23.588;2023-03-13T10:05:02;94925.09;;;37.03;12.43
1926;BME280;964;42.606;23.588;2023-03-13T10:07:31;94923.06;;;37.69;12.62
1926;BME280;964;42.606;23.588;2023-03-13T10:09:59;94911.41;;;38.49;12.21
1926;BME280;964;42.606;23.588;2023-03-13T10:12:27;94920.44;;;37.22;12.64
1926;BME280;964;42.606;23.588;2023-03-13T10:15:06;94919.63;;;37.63;12.80
1926;BME280;964;42.606;23.588;2023-03-13T10:17:42;94908.56;;;37.63;12.75
1926;BME280;964;42.606;23.588;2023-03-13T10:20:21;94909.59;;;37.60;13.07
1926;BME280;964;42.606;23.588;2023-03-13T10:22:50;94904.91;;;37.14;12.50
1926;BME280;964;42.606;23.588;2023-03-13T10:25:26;94899.50;;;36.97;12.62
1926;BME280;964;42.606;23.588;2023-03-13T10:27:55;94892.53;;;37.80;13.48
1926;BME280;964;42.606;23.588;2023-03-13T10:30:24;94886.34;;;37.39;12.92
1926;BME280;964;42.606;23.588;2023-03-13T10:32:56;94886.06;;;36.77;13.37
1926;BME280;964;42.606;23.588;2023-03-13T10:35:31;94878.09;;;36.68;12.57
1926;BME280;964;42.606;23.588;2023-03-13T10:38:01;94877.22;;;36.84;13.04
1926;BME280;964;42.606;23.588;2023-03-13T10:40:28;94867.03;;;37.87;12.78
1926;BME280;964;42.606;23.588;2023-03-13T10:43:00;94864.03;;;37.37;12.75
1926;BME280;964;42.606;23.588;2023-03-13T10:45:32;94854.31;;;38.03;12.15
1926;BME280;964;42.606;23.588;2023-03-13T10:48:03;94854.59;;;38.42;11.98
1926;BME280;964;42.606;23.588;2023-03-13T10:50:34;94844.84;;;38.36;12.30
1926;BME280;964;42.606;23.588;2023-03-13T10:53:20;94842.84;;;37.45;13.27
1926;BME280;964;42.606;23.588;2023-03-13T10:55:47;94852.66;;;34.87;14.25
1926;BME280;964;42.606;23.588;2023-03-13T10:58:18;94833.53;;;36.82;13.27
1926;BME280;964;42.606;23.588;2023-03-13T11:00:46;94823.81;;;36.76;13.31
1926;BME280;964;42.606;23.588;2023-03-13T11:03:17;94824.13;;;36.20;13.62
1926;BME280;964;42.606;23.588;2023-03-13T11:05:53;94822.50;;;36.36;13.11
1926;BME280;964;42.606;23.588;2023-03-13T11:08:22;94816.53;;;37.08;12.45
1926;BME280;964;42.606;23.588;2023-03-13T11:10:55;94821.00;;;36.81;12.38
1926;BME280;964;42.606;23.588;2023-03-13T11:13:34;94811.09;;;36.21;13.67
1926;BME280;964;42.606;23.588;2023-03-13T11:16:13;94808.34;;;37.51;13.09
1926;BME280;964;42.606;23.588;2023-03-13T11:18:53;94801.88;;;38.10;12.15
1926;BME280;964;42.606;23.588;2023-03-13T11:21:27;94799.84;;;37.19;13.17
1926;BME280;964;42.606;23.588;2023-03-13T11:23:59;94788.78;;;37.19;12.28
1926;BME280;964;42.606;23.588;2023-03-13T11:26:33;94789.00;;;38.13;12.02
1926;BME280;964;42.606;23.588;2023-03-13T11:29:06;94783.91;;;37.98;12.42
1926;BME280;964;42.606;23.588;2023-03-13T11:31:40;94782.41;;;36.70;13.21
1926;BME280;964;42.606;23.588;2023-03-13T11:34:15;94787.69;;;36.27;13.11
1926;BME280;964;42.606;23.588;2023-03-13T11:36:51;94792.00;;;36.64;13.09
1926;BME280;964;42.606;23.588;2023-03-13T11:39:36;94774.63;;;36.69;12.68
1926;BME280;964;42.606;23.588;2023-03-13T11:42:14;94772.59;;;37.53;11.90
1926;BME280;964;42.606;23.588;2023-03-13T11:44:50;94771.28;;;36.46;13.17
1926;BME280;964;42.606;23.588;2023-03-13T11:47:35;94760.56;;;37.51;12.02
1926;BME280;964;42.606;23.588;2023-03-13T11:50:27;94766.28;;;37.34;12.21
1926;BME280;964;42.606;23.588;2023-03-13T11:53:06;94752.94;;;38.18;12.13
1926;BME280;964;42.606;23.588;2023-03-13T11:55:45;94756.63;;;37.65;12.50
1926;BME280;964;42.606;23.588;2023-03-13T11:58:37;94742.41;;;39.39;11.27
1926;BME280;964;42.606;23.588;2023-03-13T12:01:10;94742.06;;;38.71;11.86
1926;BME280;964;42.606;23.588;2023-03-13T12:03:42;94737.69;;;38.94;12.02
1926;BME280;964;42.606;23.588;2023-03-13T12:06:22;94734.94;;;39.07;11.74
1926;BME280;964;42.606;23.588;2023-03-13T12:08:52;94723.72;;;39.00;11.97
1926;BME280;964;42.606;23.588;2023-03-13T12:11:24;94731.25;;;38.04;12.50
1926;BME280;964;42.606;23.588;2023-03-13T12:13:56;94720.75;;;39.11;11.62
1926;BME280;964;42.606;23.588;2023-03-13T12:16:30;94707.09;;;39.79;11.38
1926;BME280;964;42.606;23.588;2023-03-13T12:19:02;94712.72;;;39.86;11.05
1926;BME280;964;42.606;23.588;2023-03-13T12:21:32;94718.34;;;38.44;11.47
1926;BME280;964;42.606;23.588;2023-03-13T12:24:05;94710.69;;;38.95;11.71
1926;BME280;964;42.606;23.588;2023-03-13T12:26:37;94701.81;;;40.35;11.16
1926;BME280;964;42.606;23.588;2023-03-13T12:29:11;94708.84;;;40.02;11.49
1926;BME280;964;42.606;23.588;2023-03-13T12:31:42;94694.72;;;40.68;10.46
1926;BME280;964;42.606;23.588;2023-03-13T12:34:17;94698.94;;;40.48;10.16
1926;BME280;964;42.606;23.588;2023-03-13T12:36:50;94690.38;;;39.71;11.30
1926;BME280;964;42.606;23.588;2023-03-13T12:39:27;94690.44;;;40.26;10.53
1926;BME280;964;42.606;23.588;2023-03-13T12:42:08;94674.19;;;42.15;10.49
1926;BME280;964;42.606;23.588;2023-03-13T12:44:35;94682.66;;;42.68;10.44
1926;BME280;964;42.606;23.588;2023-03-13T12:47:07;94676.66;;;42.26;9.88
1926;BME280;964;42.606;23.588;2023-03-13T12:56:04;94678.88;;;43.41;10.04
1926;BME280;964;42.606;23.588;2023-03-13T12:58:45;94680.38;;;43.27;9.26
1926;BME280;964;42.606;23.588;2023-03-13T13:01:18;94679.88;;;43.06;9.82
1926;BME280;964;42.606;23.588;2023-03-13T13:03:51;94675.16;;;43.31;9.29
1926;BME280;964;42.606;23.588;2023-03-13T13:06:19;94678.50;;;42.23;9.85
1926;BME280;964;42.606;23.588;2023-03-13T13:09:02;94673.53;;;43.05;10.00
1926;BME280;964;42.606;23.588;2023-03-13T13:11:46;94679.06;;;43.28;9.31
1926;BME280;964;42.606;23.588;2023-03-13T13:17:29;94682.72;;;42.17;9.44
1926;BME280;964;42.606;23.588;2023-03-13T13:23:25;94675.31;;;43.40;9.48
1926;BME280;964;42.606;23.588;2023-03-13T13:25:54;94682.25;;;43.32;9.31
1926;BME280;964;42.606;23.588;2023-03-13T13:28:31;94675.72;;;42.31;9.42
1926;BME280;964;42.606;23.588;2023-03-13T13:30:58;94687.69;;;41.95;9.39
1926;BME280;964;42.606;23.588;2023-03-13T13:33:43;94684.75;;;42.08;9.48
1926;BME280;964;42.606;23.588;2023-03-13T13:36:29;94667.25;;;43.67;9.43
1926;BME280;964;42.606;23.588;2023-03-13T13:38:58;94657.56;;;44.08;9.03
1926;BME280;964;42.606;23.588;2023-03-13T13:41:42;94664.41;;;44.22;9.35
1926;BME280;964;42.606;23.588;2023-03-13T13:44:24;94663.41;;;43.40;9.37
1926;BME280;964;42.606;23.588;2023-03-13T13:46:52;94657.47;;;43.43;9.60
1926;BME280;964;42.606;23.588;2023-03-13T13:49:21;94648.00;;;44.19;9.27
1926;BME280;964;42.606;23.588;2023-03-13T13:52:17;94653.06;;;43.80;9.52